Amity Harbor, New York
Current Conditions -  °F | °C
As of 6:53 PM on Wednesday 28 Jan 2015 (Local Time) from KFRG Reporting Station
Clear Clear  
Wind Chill: 19°   Ceiling: Unl
Heat Index: 29°   Visibility: 10mi
Dew Point:   Wind: 12mph
Humidity: 35%   Direction: 350°N
Pressure: 30.18"   Gusts: NA
Location:  40.6858°N, 73.4152°W
Report Text: KFRG 282353Z 35010KT 10SM CLR M02/M16 A3018 RMK AO2 SLP221 T10171156 10000 21022 53034
Loading
Personal Weather Stations






























Interactive Weather Map New forecast layout! Learn more

10-Day Weather Forecast

Advertisements
Track Severe Weather on mobile